Time;durP1;ratioP1;P1;durP2;ratioP2;P2;SDS_P1;SDS_P2;PMS_P1;PMS_P2;Temp;Humidity;BMP_temperature;BMP_pressure;BME280_temperature;BME280_humidity;BME280_pressure;Samples;Min_cycle;Max_cycle;Signal;HPM_P1;HPM_P2
2021/12/01 00:01:47;;;;;;;6.22;3.72;;;;;;;2.80;100.00;96475.44;4947735;28;20098;-62
2021/12/01 00:04:12;;;;;;;4.90;3.40;;;;;;;2.76;100.00;96466.38;4943784;28;20113;-62
2021/12/01 00:06:38;;;;;;;4.75;3.45;;;;;;;2.75;100.00;96459.38;4944174;28;20077;-63
2021/12/01 00:09:04;;;;;;;5.38;4.05;;;;;;;2.75;100.00;96453.19;4946359;28;20121;-63
2021/12/01 00:11:30;;;;;;;5.93;3.95;;;;;;;2.83;100.00;96447.75;4953075;28;20595;-61
2021/12/01 00:13:55;;;;;;;7.15;3.78;;;;;;;2.77;100.00;96453.63;4948354;28;20047;-60
2021/12/01 00:16:21;;;;;;;5.05;3.72;;;;;;;2.76;100.00;96452.84;4944749;28;20081;-62
2021/12/01 00:18:46;;;;;;;5.60;3.75;;;;;;;2.83;100.00;96452.38;4932143;28;20129;-60
2021/12/01 00:21:12;;;;;;;7.30;3.95;;;;;;;2.79;100.00;96432.47;4941445;28;20074;-61
2021/12/01 00:23:37;;;;;;;5.50;3.80;;;;;;;2.86;100.00;96438.19;4947850;28;20543;-59
2021/12/01 00:26:04;;;;;;;5.55;3.53;;;;;;;2.97;100.00;96431.31;4926006;28;20047;-63
2021/12/01 00:28:30;;;;;;;6.95;3.58;;;;;;;3.12;100.00;96426.50;4950587;28;20095;-62
2021/12/01 00:30:57;;;;;;;4.53;3.03;;;;;;;3.17;100.00;96420.88;4954164;28;20077;-62
2021/12/01 00:33:23;;;;;;;5.03;3.10;;;;;;;3.11;100.00;96414.84;4942420;29;20535;-61
2021/12/01 00:35:53;;;;;;;7.70;3.72;;;;;;;3.08;100.00;96425.53;4945053;28;20035;-60
2021/12/01 00:38:20;;;;;;;5.75;3.45;;;;;;;3.03;100.00;96416.50;4950041;28;21280;-61
2021/12/01 00:40:46;;;;;;;5.32;3.30;;;;;;;2.99;100.00;96417.44;4949292;28;20047;-61
2021/12/01 00:43:16;;;;;;;7.03;3.58;;;;;;;2.98;100.00;96416.66;4956163;28;20503;-62
2021/12/01 00:45:54;;;;;;;6.15;3.30;;;;;;;2.95;100.00;96420.00;4947446;28;20051;-61
2021/12/01 00:48:19;;;;;;;5.10;3.22;;;;;;;2.97;100.00;96412.38;4947480;28;20074;-62
2021/12/01 00:50:46;;;;;;;5.18;3.50;;;;;;;3.01;100.00;96405.19;4953434;28;20538;-62
2021/12/01 00:53:11;;;;;;;4.38;3.15;;;;;;;3.00;100.00;96398.19;4942577;28;20043;-62
2021/12/01 00:55:37;;;;;;;7.88;3.50;;;;;;;3.04;100.00;96401.03;4952010;28;20042;-61
2021/12/01 00:58:04;;;;;;;5.45;3.50;;;;;;;3.03;100.00;96392.13;4950518;28;20047;-62
2021/12/01 01:00:31;;;;;;;5.85;3.53;;;;;;;3.04;100.00;96391.03;4948267;28;20536;-62
2021/12/01 01:02:58;;;;;;;4.85;3.70;;;;;;;3.04;100.00;96390.22;4956052;28;20042;-61
2021/12/01 01:05:24;;;;;;;5.10;3.25;;;;;;;3.03;100.00;96384.03;4945404;28;20444;-62
2021/12/01 01:07:50;;;;;;;5.93;4.22;;;;;;;2.98;100.00;96381.50;4957652;28;20518;-62
2021/12/01 01:18:26;;;;;;;4.40;3.08;;;;;;;3.04;100.00;96363.16;4933447;28;20539;-61
2021/12/01 01:20:52;;;;;;;4.22;2.85;;;;;;;3.08;100.00;96357.88;4947700;28;20045;-61
2021/12/01 01:23:17;;;;;;;3.22;2.35;;;;;;;3.20;100.00;96352.56;4941043;28;20043;-62
2021/12/01 01:25:43;;;;;;;4.78;2.60;;;;;;;3.19;100.00;96353.72;4951109;28;20046;-62
2021/12/01 01:28:08;;;;;;;5.07;2.67;;;;;;;3.16;100.00;96346.25;4940443;28;20162;-62
2021/12/01 01:30:34;;;;;;;3.33;2.50;;;;;;;3.18;100.00;96355.59;4948821;28;20042;-61
2021/12/01 01:33:00;;;;;;;3.80;2.35;;;;;;;3.15;100.00;96350.88;4945880;28;20039;-61
2021/12/01 01:35:26;;;;;;;4.95;3.00;;;;;;;3.24;100.00;96351.59;4937429;29;20051;-60
2021/12/01 01:37:51;;;;;;;4.18;2.30;;;;;;;3.31;100.00;96353.78;4941434;28;20054;-62
2021/12/01 01:40:16;;;;;;;4.78;3.22;;;;;;;3.37;100.00;96352.47;4935929;28;20043;-62
2021/12/01 01:42:42;;;;;;;4.72;2.22;;;;;;;3.36;100.00;96339.28;4954057;28;20047;-61
2021/12/01 01:45:08;;;;;;;3.67;2.30;;;;;;;3.35;100.00;96330.38;4941074;28;20541;-60
2021/12/01 01:47:35;;;;;;;4.57;2.33;;;;;;;3.40;100.00;96326.66;4942593;28;20050;-60
2021/12/01 01:50:22;;;;;;;3.85;2.42;;;;;;;3.51;100.00;96327.88;4927791;28;20527;-61
2021/12/01 01:52:46;;;;;;;4.13;2.50;;;;;;;3.57;100.00;96317.63;4933198;28;20460;-60
2021/12/01 01:55:12;;;;;;;4.32;2.50;;;;;;;3.54;100.00;96302.81;4940210;28;20031;-62
2021/12/01 01:57:37;;;;;;;4.25;2.30;;;;;;;3.62;100.00;96317.44;4949838;28;20054;-62
2021/12/01 02:00:08;;;;;;;4.53;2.88;;;;;;;3.52;100.00;96309.69;4944947;28;20069;-63
2021/12/01 02:02:34;;;;;;;3.55;2.75;;;;;;;3.46;100.00;96309.13;4943329;28;20035;-61
2021/12/01 02:04:59;;;;;;;4.00;2.58;;;;;;;3.46;100.00;96298.28;4958047;28;20066;-63
2021/12/01 02:07:25;;;;;;;3.63;2.13;;;;;;;3.53;100.00;96308.56;4936217;29;20058;-61
2021/12/01 02:09:50;;;;;;;4.40;2.65;;;;;;;3.61;100.00;96297.66;4944979;28;20662;-61
2021/12/01 02:12:16;;;;;;;5.05;3.05;;;;;;;3.57;100.00;96296.75;4939459;28;20039;-62
2021/12/01 02:14:41;;;;;;;3.72;2.65;;;;;;;3.55;100.00;96306.34;4953692;28;20567;-62
2021/12/01 02:17:07;;;;;;;4.57;2.75;;;;;;;3.64;100.00;96282.69;4948466;28;20222;-62
2021/12/01 02:19:37;;;;;;;3.85;2.75;;;;;;;3.57;100.00;96275.09;4945849;28;20233;-61
2021/12/01 02:22:03;;;;;;;3.42;2.40;;;;;;;3.61;100.00;96275.22;4950129;28;20094;-60
2021/12/01 02:24:28;;;;;;;5.22;3.28;;;;;;;3.55;100.00;96279.25;4944992;28;20043;-62
2021/12/01 02:26:54;;;;;;;4.15;2.90;;;;;;;3.50;100.00;96271.34;4944195;28;20056;-60
2021/12/01 02:29:23;;;;;;;5.05;3.30;;;;;;;3.56;100.00;96251.81;4935083;28;20042;-59
2021/12/01 02:31:50;;;;;;;4.87;3.10;;;;;;;3.59;100.00;96255.81;4933463;29;20189;-62
2021/12/01 02:34:22;;;;;;;3.85;2.20;;;;;;;3.67;100.00;96240.59;4937378;28;20035;-62
2021/12/01 02:36:50;;;;;;;6.35;3.10;;;;;;;3.56;100.00;96227.47;4948331;28;20054;-62
2021/12/01 02:39:16;;;;;;;4.10;2.85;;;;;;;3.64;100.00;96225.81;4946830;28;20035;-62
2021/12/01 02:41:44;;;;;;;3.72;2.42;;;;;;;3.59;100.00;96220.59;4951654;28;20674;-62
2021/12/01 02:44:12;;;;;;;3.63;2.33;;;;;;;3.62;100.00;96217.25;4945547;28;20039;-62
2021/12/01 02:46:38;;;;;;;6.45;2.88;;;;;;;3.61;100.00;96215.63;4944148;28;20042;-61
2021/12/01 02:49:05;;;;;;;4.97;2.58;;;;;;;3.58;100.00;96205.47;4918182;28;20042;-61
2021/12/01 02:51:32;;;;;;;3.72;2.53;;;;;;;3.60;100.00;96198.59;4946445;28;20460;-61
2021/12/01 02:53:59;;;;;;;4.15;2.72;;;;;;;3.66;100.00;96196.47;4951674;28;20075;-61
2021/12/01 02:56:27;;;;;;;3.38;2.50;;;;;;;3.62;100.00;96193.66;4915963;28;20046;-62
2021/12/01 02:58:53;;;;;;;4.97;3.38;;;;;;;3.62;100.00;96193.66;4940350;28;20035;-62
2021/12/01 03:01:22;;;;;;;3.80;2.53;;;;;;;3.64;100.00;96190.63;4912326;28;21826;-63
2021/12/01 03:03:48;;;;;;;3.90;2.80;;;;;;;3.62;100.00;96187.44;4944901;28;20424;-62
2021/12/01 03:06:16;;;;;;;5.20;2.53;;;;;;;3.63;100.00;96189.78;4916469;28;20050;-61
2021/12/01 03:08:43;;;;;;;5.07;2.63;;;;;;;3.59;100.00;96186.19;4924336;28;20964;-62
2021/12/01 03:11:09;;;;;;;3.13;2.53;;;;;;;3.55;100.00;96193.41;4932410;28;20053;-61
2021/12/01 03:13:34;;;;;;;4.43;2.47;;;;;;;3.53;100.00;96181.31;4930596;28;20042;-62
2021/12/01 03:16:00;;;;;;;4.10;2.47;;;;;;;3.57;100.00;96184.94;4941736;28;20584;-62
2021/12/01 03:18:26;;;;;;;3.10;2.25;;;;;;;3.71;100.00;96177.31;4919322;28;20062;-61
2021/12/01 03:20:52;;;;;;;3.20;2.20;;;;;;;3.67;100.00;96170.97;4942265;28;20031;-61
2021/12/01 03:23:18;;;;;;;3.72;2.15;;;;;;;3.62;100.00;96171.97;4936755;28;20247;-62
2021/12/01 03:25:44;;;;;;;4.25;2.50;;;;;;;3.67;100.00;96162.84;4950260;28;20046;-62
2021/12/01 03:28:10;;;;;;;3.45;2.50;;;;;;;3.84;100.00;96151.03;4947495;28;20089;-62
2021/12/01 03:30:37;;;;;;;3.50;2.67;;;;;;;3.96;100.00;96152.97;4942434;28;20147;-62
2021/12/01 03:33:10;;;;;;;3.35;2.50;;;;;;;3.83;100.00;96141.31;4939422;28;20046;-62
2021/12/01 03:35:39;;;;;;;4.00;2.30;;;;;;;3.85;100.00;96132.88;4949329;28;20396;-59
2021/12/01 03:38:05;;;;;;;3.83;2.30;;;;;;;3.94;100.00;96123.53;4938744;28;20058;-62
2021/12/01 03:40:31;;;;;;;4.68;2.63;;;;;;;3.93;100.00;96124.63;4943121;28;20039;-62
2021/12/01 03:42:56;;;;;;;3.85;2.80;;;;;;;4.09;100.00;96115.81;4948671;28;20058;-62
2021/12/01 03:45:22;;;;;;;3.90;2.65;;;;;;;4.09;100.00;96116.63;4937898;28;20134;-61
2021/12/01 03:47:48;;;;;;;4.00;2.90;;;;;;;4.01;100.00;96099.34;4937521;28;20179;-61
2021/12/01 03:50:13;;;;;;;3.85;2.25;;;;;;;4.01;100.00;96102.03;4934805;28;20038;-61
2021/12/01 03:52:41;;;;;;;3.78;2.47;;;;;;;4.04;100.00;96108.72;4941369;28;20374;-61
2021/12/01 03:55:09;;;;;;;4.43;2.40;;;;;;;4.13;100.00;96100.47;4942915;28;20042;-60
2021/12/01 03:57:35;;;;;;;3.30;2.10;;;;;;;4.09;100.00;96094.94;4944481;28;20051;-61
2021/12/01 04:00:02;;;;;;;2.38;1.88;;;;;;;4.13;100.00;96093.13;4928661;28;20066;-61
2021/12/01 04:02:28;;;;;;;4.18;2.20;;;;;;;4.14;100.00;96086.59;4936832;28;20047;-61
2021/12/01 04:04:53;;;;;;;3.45;2.17;;;;;;;4.24;100.00;96087.25;4950463;28;20043;-60
2021/12/01 04:07:19;;;;;;;3.22;2.10;;;;;;;4.11;100.00;96081.84;4933991;28;20042;-60
2021/12/01 04:09:45;;;;;;;4.55;2.10;;;;;;;4.07;100.00;96070.13;4948794;28;20043;-62
2021/12/01 04:12:11;;;;;;;2.95;2.00;;;;;;;4.03;100.00;96069.19;4939485;28;20074;-61
2021/12/01 04:14:37;;;;;;;3.85;2.53;;;;;;;4.06;100.00;96075.88;4945622;28;20074;-60
2021/12/01 04:17:03;;;;;;;3.15;2.00;;;;;;;4.10;100.00;96064.00;4948802;28;20455;-62
2021/12/01 04:19:29;;;;;;;2.92;2.00;;;;;;;4.19;100.00;96058.47;4945110;28;20070;-62
2021/12/01 04:21:54;;;;;;;2.67;2.20;;;;;;;4.14;100.00;96054.06;4952583;28;20082;-60
2021/12/01 04:24:20;;;;;;;2.78;2.17;;;;;;;4.13;100.00;96052.47;4936510;28;20058;-62
2021/12/01 04:26:45;;;;;;;2.50;1.90;;;;;;;4.09;100.00;96050.78;4957799;28;20051;-63
2021/12/01 04:29:11;;;;;;;2.80;1.95;;;;;;;4.13;100.00;96036.22;4942221;28;20129;-61
2021/12/01 04:31:38;;;;;;;3.03;1.77;;;;;;;4.14;100.00;96037.81;4945238;28;20058;-61
2021/12/01 04:34:05;;;;;;;5.75;3.75;;;;;;;4.24;100.00;96033.06;4933627;28;20039;-62
2021/12/01 04:36:37;;;;;;;2.80;1.50;;;;;;;4.18;100.00;96025.16;4944270;28;20037;-62
2021/12/01 04:39:06;;;;;;;1.95;1.42;;;;;;;4.12;100.00;96018.38;4938842;28;20044;-63
2021/12/01 04:41:38;;;;;;;2.60;1.85;;;;;;;4.26;100.00;96017.22;4939780;28;20047;-62
2021/12/01 04:44:09;;;;;;;2.72;1.90;;;;;;;4.22;100.00;96017.13;4940706;28;20091;-61
2021/12/01 04:46:42;;;;;;;2.67;2.10;;;;;;;4.08;100.00;96014.75;4952973;28;20042;-61
2021/12/01 04:49:08;;;;;;;2.30;1.73;;;;;;;4.05;100.00;96010.03;4948595;28;20039;-62
2021/12/01 04:51:35;;;;;;;2.70;1.80;;;;;;;4.10;100.00;96000.88;4952343;28;20046;-61
2021/12/01 04:54:02;;;;;;;3.03;2.10;;;;;;;4.10;100.00;96000.88;4945218;28;20485;-61
2021/12/01 04:56:28;;;;;;;3.70;2.13;;;;;;;4.11;100.00;95994.34;4942102;28;20031;-61
2021/12/01 04:58:53;;;;;;;2.63;2.10;;;;;;;4.09;100.00;95986.56;4953373;28;20098;-62
2021/12/01 05:01:19;;;;;;;2.50;1.80;;;;;;;4.16;100.00;95992.19;4947599;28;20102;-64
2021/12/01 05:03:44;;;;;;;3.10;2.08;;;;;;;4.14;100.00;95985.50;4926778;29;20063;-62
2021/12/01 05:06:12;;;;;;;3.00;2.08;;;;;;;4.26;100.00;95985.47;4940221;28;20212;-61
2021/12/01 05:08:38;;;;;;;3.78;2.42;;;;;;;4.26;100.00;95979.28;4943366;28;20057;-63
2021/12/01 05:11:04;;;;;;;3.13;2.03;;;;;;;4.27;100.00;95975.41;4942490;28;20039;-63
2021/12/01 05:13:30;;;;;;;2.28;1.58;;;;;;;4.22;100.00;95982.66;4946513;28;20086;-63
2021/12/01 05:15:55;;;;;;;2.95;2.08;;;;;;;4.23;100.00;95978.03;4939842;28;20035;-63
2021/12/01 05:18:21;;;;;;;2.75;1.95;;;;;;;4.20;100.00;95981.44;4935723;28;20183;-62
2021/12/01 05:20:46;;;;;;;3.28;2.28;;;;;;;4.11;100.00;95978.84;4953183;28;20051;-63
2021/12/01 05:23:15;;;;;;;5.10;2.60;;;;;;;4.17;100.00;95977.47;4943174;28;20094;-61
2021/12/01 05:25:42;;;;;;;4.38;2.60;;;;;;;4.14;100.00;95978.19;4940320;28;20523;-62
2021/12/01 05:28:07;;;;;;;3.03;2.28;;;;;;;4.13;100.00;95976.59;4933900;28;20518;-63
2021/12/01 05:30:33;;;;;;;3.92;2.45;;;;;;;4.09;100.00;95967.56;4943433;29;20063;-62
2021/12/01 05:33:04;;;;;;;6.45;2.92;;;;;;;4.01;100.00;95963.06;4945280;28;20039;-61
2021/12/01 05:35:30;;;;;;;4.55;2.58;;;;;;;4.01;100.00;95954.94;4939982;28;20520;-60
2021/12/01 05:37:57;;;;;;;4.25;2.33;;;;;;;3.96;100.00;95941.63;4945376;28;20070;-60
2021/12/01 05:40:22;;;;;;;3.17;2.40;;;;;;;3.96;100.00;95947.03;4939101;28;20209;-60
2021/12/01 05:42:48;;;;;;;3.97;2.38;;;;;;;3.92;100.00;95938.81;4942498;29;20134;-62
2021/12/01 05:45:13;;;;;;;3.30;2.28;;;;;;;3.87;100.00;95939.06;4943119;28;20039;-61
2021/12/01 05:47:39;;;;;;;3.15;2.22;;;;;;;3.91;100.00;95937.25;4947284;28;20054;-61
2021/12/01 05:50:05;;;;;;;3.15;2.38;;;;;;;3.90;100.00;95919.41;4940048;28;20057;-61
2021/12/01 05:52:30;;;;;;;3.13;2.20;;;;;;;3.90;100.00;95930.22;4940981;28;20162;-60
2021/12/01 05:54:56;;;;;;;3.58;2.40;;;;;;;3.92;100.00;95927.97;4952014;28;20063;-62
2021/12/01 05:57:23;;;;;;;3.20;1.92;;;;;;;3.86;100.00;95925.84;4939128;28;20644;-61
2021/12/01 05:59:48;;;;;;;3.13;2.17;;;;;;;3.74;100.00;95923.94;4951563;28;20050;-62
2021/12/01 06:02:14;;;;;;;5.35;2.78;;;;;;;3.75;100.00;95920.91;4939004;28;20051;-61
2021/12/01 06:04:39;;;;;;;3.35;1.77;;;;;;;3.71;100.00;95919.19;4941832;28;20485;-62
2021/12/01 06:07:05;;;;;;;3.10;1.98;;;;;;;3.76;100.00;95916.25;4945939;28;20050;-61
2021/12/01 06:09:31;;;;;;;3.05;2.17;;;;;;;3.73;100.00;95922.38;4941779;28;20642;-62
2021/12/01 06:11:56;;;;;;;3.40;1.88;;;;;;;3.67;100.00;95912.91;4949570;28;20043;-62
2021/12/01 06:14:22;;;;;;;2.70;2.03;;;;;;;3.66;100.00;95908.63;4917086;28;20054;-62
2021/12/01 06:16:47;;;;;;;3.58;2.13;;;;;;;3.58;100.00;95913.03;4946481;28;20135;-63
2021/12/01 06:19:13;;;;;;;2.80;1.88;;;;;;;3.50;100.00;95903.13;4940956;28;20559;-62
2021/12/01 06:21:38;;;;;;;5.05;2.15;;;;;;;3.49;100.00;95904.22;4943682;28;20051;-61
2021/12/01 06:24:04;;;;;;;2.60;1.85;;;;;;;3.51;100.00;95901.97;4941499;28;20070;-62
2021/12/01 06:26:30;;;;;;;4.30;2.20;;;;;;;3.57;100.00;95906.81;4939657;28;20075;-63
2021/12/01 06:28:56;;;;;;;2.20;1.65;;;;;;;3.58;100.00;95894.88;4943302;29;20123;-63
2021/12/01 06:31:21;;;;;;;3.58;1.98;;;;;;;3.66;100.00;95903.22;4939153;28;20030;-61
2021/12/01 06:33:47;;;;;;;4.20;1.98;;;;;;;3.60;100.00;95895.31;4946246;28;20042;-62
2021/12/01 06:36:13;;;;;;;4.15;2.17;;;;;;;3.62;100.00;95893.06;4939484;28;20074;-61
2021/12/01 06:38:39;;;;;;;3.08;2.00;;;;;;;3.61;100.00;95891.47;4944728;28;20201;-62
2021/12/01 06:41:06;;;;;;;3.28;2.35;;;;;;;3.79;100.00;95892.00;4936485;29;20051;-61
2021/12/01 06:43:31;;;;;;;4.20;2.22;;;;;;;3.73;100.00;95887.19;4945034;29;20039;-63
2021/12/01 06:45:57;;;;;;;5.43;3.03;;;;;;;3.71;100.00;95890.22;4949112;29;20135;-62
2021/12/01 06:48:23;;;;;;;3.20;2.40;;;;;;;3.72;100.00;95878.25;4940514;28;20731;-60
2021/12/01 06:50:48;;;;;;;3.58;2.05;;;;;;;3.69;100.00;95878.94;4942117;29;20047;-62
2021/12/01 06:53:13;;;;;;;4.20;2.35;;;;;;;3.62;100.00;95873.31;4936871;29;20051;-62
2021/12/01 06:55:39;;;;;;;4.60;2.20;;;;;;;3.63;100.00;95877.59;4946869;29;20035;-62
2021/12/01 06:58:04;;;;;;;6.03;1.95;;;;;;;3.60;100.00;95878.25;4940467;28;20547;-63
2021/12/01 07:00:30;;;;;;;2.80;2.00;;;;;;;3.55;100.00;95883.94;4944167;29;20055;-63
2021/12/01 07:02:56;;;;;;;3.47;2.15;;;;;;;3.72;100.00;95877.47;4942920;29;20039;-64
2021/12/01 07:05:22;;;;;;;3.05;2.13;;;;;;;3.72;100.00;95875.53;4934750;29;21555;-63
2021/12/01 07:07:47;;;;;;;4.40;1.98;;;;;;;3.58;100.00;95867.81;4942638;28;20480;-63
2021/12/01 07:10:13;;;;;;;2.97;2.28;;;;;;;3.60;100.00;95867.44;4937927;29;20519;-62
2021/12/01 07:12:40;;;;;;;4.80;2.47;;;;;;;3.62;100.00;95859.78;4942494;29;20126;-64
2021/12/01 07:15:07;;;;;;;3.05;2.22;;;;;;;3.69;100.00;95857.28;4935086;29;20054;-61
2021/12/01 07:17:32;;;;;;;4.03;1.92;;;;;;;3.70;100.00;95849.94;4943058;28;20051;-64
2021/12/01 07:19:58;;;;;;;3.63;2.22;;;;;;;3.74;100.00;95851.59;4943604;29;20043;-64
2021/12/01 07:22:23;;;;;;;2.08;1.70;;;;;;;3.79;100.00;95853.28;4936566;29;20492;-64
2021/12/01 07:24:49;;;;;;;2.90;2.03;;;;;;;3.83;100.00;95851.47;4940456;29;20503;-63
2021/12/01 07:27:15;;;;;;;3.45;2.50;;;;;;;3.83;100.00;95846.03;4930291;28;20041;-63
2021/12/01 07:29:42;;;;;;;4.75;2.20;;;;;;;3.99;100.00;95851.53;4942787;29;20535;-63
2021/12/01 07:32:09;;;;;;;3.70;2.28;;;;;;;4.03;100.00;95838.88;4937986;29;20469;-63
2021/12/01 07:34:41;;;;;;;4.20;1.80;;;;;;;4.07;99.75;95836.25;4953755;29;20051;-60
2021/12/01 07:37:16;;;;;;;5.18;2.08;;;;;;;4.06;100.00;95829.28;4914253;29;20047;-60
2021/12/01 07:39:42;;;;;;;3.80;2.33;;;;;;;4.01;100.00;95820.22;4942176;29;20049;-63
2021/12/01 07:42:08;;;;;;;2.88;1.98;;;;;;;4.09;100.00;95820.44;4935528;29;20047;-62
2021/12/01 07:44:33;;;;;;;2.80;2.03;;;;;;;4.15;99.65;95817.13;4943970;29;20154;-64
2021/12/01 07:46:59;;;;;;;3.78;2.00;;;;;;;4.63;96.74;95809.06;4942011;28;20039;-64
2021/12/01 07:49:25;;;;;;;2.97;1.95;;;;;;;5.11;94.77;95798.97;4937336;29;20145;-64
2021/12/01 07:51:51;;;;;;;3.88;2.28;;;;;;;5.47;93.04;95804.41;4942303;29;20047;-61
2021/12/01 07:54:16;;;;;;;3.83;1.80;;;;;;;6.33;86.47;95795.25;4933154;29;20475;-61
2021/12/01 07:56:42;;;;;;;1.77;1.50;;;;;;;6.47;84.10;95792.00;4940642;29;20035;-61
2021/12/01 07:59:08;;;;;;;2.67;1.73;;;;;;;6.81;84.08;95794.91;4932879;29;20047;-63
2021/12/01 08:01:33;;;;;;;1.83;1.48;;;;;;;6.68;84.20;95797.81;4940777;29;20110;-62
2021/12/01 08:03:59;;;;;;;1.77;1.30;;;;;;;7.03;84.87;95794.09;4940816;29;20710;-63
2021/12/01 08:06:26;;;;;;;2.80;1.63;;;;;;;6.62;83.85;95790.31;4937136;28;20800;-64
2021/12/01 08:08:51;;;;;;;2.90;1.55;;;;;;;7.08;82.19;95787.56;4941221;29;20043;-65
2021/12/01 08:11:17;;;;;;;3.03;1.35;;;;;;;7.39;79.51;95772.81;4935055;29;20045;-63
2021/12/01 08:13:42;;;;;;;2.60;1.40;;;;;;;7.60;78.99;95766.88;4942054;29;20043;-65
2021/12/01 08:16:08;;;;;;;2.45;1.65;;;;;;;7.60;78.65;95782.47;4936621;29;20502;-65
2021/12/01 08:18:33;;;;;;;2.80;1.98;;;;;;;7.94;75.42;95769.63;4941271;28;20039;-64
2021/12/01 08:20:58;;;;;;;2.85;1.70;;;;;;;8.20;75.37;95768.75;4945965;28;20388;-64
2021/12/01 08:23:24;;;;;;;3.40;2.08;;;;;;;8.45;74.70;95754.59;4929528;29;20567;-62
2021/12/01 08:25:49;;;;;;;2.78;1.50;;;;;;;8.78;71.05;95758.38;4944168;29;20456;-62
2021/12/01 08:28:15;;;;;;;1.60;1.13;;;;;;;7.82;74.57;95737.94;4940492;28;20054;-61
2021/12/01 08:30:41;;;;;;;1.10;0.93;;;;;;;6.76;78.66;95740.78;4929391;29;20476;-62
2021/12/01 08:33:06;;;;;;;1.30;1.05;;;;;;;6.72;80.93;95739.94;4942168;29;20039;-57
2021/12/01 08:35:32;;;;;;;2.05;1.42;;;;;;;6.93;81.59;95734.03;4947509;29;20043;-62
2021/12/01 08:37:58;;;;;;;1.85;1.27;;;;;;;6.63;81.24;95732.81;4945704;28;20134;-60
2021/12/01 08:40:24;;;;;;;1.50;1.08;;;;;;;6.79;80.43;95726.44;4941838;29;20909;-60
2021/12/01 08:42:49;;;;;;;1.40;1.20;;;;;;;6.48;80.35;95722.84;4941996;29;20079;-63
2021/12/01 08:45:15;;;;;;;2.25;1.30;;;;;;;6.86;79.26;95724.63;4939110;29;20093;-59
2021/12/01 08:47:41;;;;;;;1.35;1.23;;;;;;;6.51;80.59;95717.47;4943565;28;20051;-61
2021/12/01 08:50:08;;;;;;;3.08;1.75;;;;;;;6.66;80.86;95723.13;4940440;29;20078;-59
2021/12/01 08:52:34;;;;;;;2.92;1.52;;;;;;;6.70;80.26;95719.31;4945298;29;20152;-60
2021/12/01 08:55:00;;;;;;;4.20;2.00;;;;;;;7.00;79.93;95710.41;4949984;29;20527;-63
2021/12/01 08:57:25;;;;;;;4.00;2.03;;;;;;;7.26;78.90;95706.91;4943742;29;20051;-62
2021/12/01 08:59:51;;;;;;;3.70;1.70;;;;;;;7.30;78.54;95696.06;4945069;29;20130;-63
2021/12/01 09:02:17;;;;;;;2.10;1.48;;;;;;;7.49;77.71;95705.22;4940185;29;20045;-63
2021/12/01 09:04:45;;;;;;;4.10;2.53;;;;;;;7.35;78.42;95700.41;4927281;29;20062;-62
2021/12/01 09:07:10;;;;;;;4.90;2.90;;;;;;;7.62;77.52;95693.72;4939652;28;20043;-62
2021/12/01 09:09:36;;;;;;;3.10;1.73;;;;;;;7.54;77.05;95691.28;4943202;29;20046;-60
2021/12/01 09:12:02;;;;;;;3.47;1.75;;;;;;;7.90;77.49;95689.72;4943603;29;20065;-59
2021/12/01 09:14:28;;;;;;;3.35;1.65;;;;;;;7.66;76.11;95688.31;4943240;29;20400;-61
2021/12/01 09:16:55;;;;;;;1.73;1.48;;;;;;;7.44;77.28;95684.56;4944585;28;20047;-62
2021/12/01 09:19:22;;;;;;;2.30;1.48;;;;;;;7.59;78.50;95669.16;4940114;29;20043;-62
2021/12/01 09:21:48;;;;;;;2.00;1.40;;;;;;;7.78;77.90;95668.97;4946230;29;20489;-60
2021/12/01 09:24:14;;;;;;;3.67;1.48;;;;;;;7.64;77.40;95655.97;4939401;29;20059;-61
2021/12/01 09:26:40;;;;;;;1.90;1.40;;;;;;;8.15;75.96;95659.19;4945264;28;20066;-60
2021/12/01 09:29:06;;;;;;;2.15;1.40;;;;;;;9.25;71.06;95661.13;4939260;29;20043;-62
2021/12/01 09:31:32;;;;;;;1.95;1.30;;;;;;;9.86;68.41;95653.16;4944118;28;20489;-62
2021/12/01 09:33:57;;;;;;;3.53;1.05;;;;;;;10.81;65.20;95654.81;4941087;29;20047;-62
2021/12/01 09:36:23;;;;;;;2.30;1.17;;;;;;;11.69;62.00;95654.16;4939501;28;20047;-62
2021/12/01 09:38:49;;;;;;;3.72;1.40;;;;;;;11.98;59.77;95643.81;4944621;29;20397;-60
2021/12/01 09:41:14;;;;;;;2.28;1.20;;;;;;;12.63;55.88;95639.41;4939538;29;20039;-61
2021/12/01 09:43:40;;;;;;;5.15;1.25;;;;;;;13.95;52.57;95630.91;4943652;29;20118;-62
2021/12/01 09:46:09;;;;;;;3.15;1.08;;;;;;;13.49;52.59;95617.75;4939443;29;20049;-63
2021/12/01 09:48:38;;;;;;;0.85;0.63;;;;;;;14.56;48.86;95606.38;4944587;28;20058;-61
2021/12/01 09:51:04;;;;;;;4.70;2.25;;;;;;;13.15;51.71;95608.28;4940840;29;20548;-60
2021/12/01 09:53:30;;;;;;;3.20;1.20;;;;;;;12.60;55.48;95606.47;4946989;29;20071;-61
2021/12/01 09:55:56;;;;;;;6.57;1.13;;;;;;;12.78;53.60;95603.56;4945536;29;20130;-61
2021/12/01 09:58:24;;;;;;;1.67;1.00;;;;;;;11.90;57.04;95595.63;4933700;28;20604;-64
2021/12/01 10:00:54;;;;;;;1.45;0.80;;;;;;;11.64;58.66;95592.25;4940324;29;20043;-61
2021/12/01 10:03:20;;;;;;;3.28;0.90;;;;;;;12.32;56.85;95582.81;4936348;29;20239;-62
2021/12/01 10:05:51;;;;;;;6.88;1.98;;;;;;;12.59;55.99;95575.50;4944287;29;20043;-61
2021/12/01 10:08:25;;;;;;;4.55;1.25;;;;;;;12.56;55.21;95568.06;4937937;28;20110;-62
2021/12/01 10:10:52;;;;;;;1.40;0.85;;;;;;;11.69;56.87;95566.38;4944314;29;20071;-61
2021/12/01 10:13:25;;;;;;;6.03;0.90;;;;;;;11.16;59.09;95565.47;4938010;29;20132;-62
2021/12/01 10:15:52;;;;;;;2.88;1.30;;;;;;;10.76;60.71;95549.16;4942452;29;20609;-61
2021/12/01 10:18:18;;;;;;;3.65;1.10;;;;;;;10.00;64.74;95534.78;4946947;28;20143;-60
2021/12/01 10:20:55;;;;;;;1.90;0.80;;;;;;;9.64;64.70;95525.78;4948218;29;20075;-62
2021/12/01 10:23:21;;;;;;;2.05;1.10;;;;;;;9.51;64.38;95534.34;4936747;29;20086;-62
2021/12/01 10:25:47;;;;;;;4.03;1.50;;;;;;;9.24;66.62;95524.91;4942893;29;20049;-61
2021/12/01 10:28:33;;;;;;;1.15;0.90;;;;;;;9.06;67.24;95522.16;4936673;28;20475;-61
2021/12/01 10:30:58;;;;;;;4.50;1.98;;;;;;;8.61;67.39;95517.66;4941441;29;20142;-61
2021/12/01 10:33:24;;;;;;;2.47;1.15;;;;;;;8.45;69.23;95500.06;4938402;29;21056;-62
2021/12/01 10:35:49;;;;;;;5.57;1.10;;;;;;;8.36;69.58;95501.13;4944432;29;20053;-62
2021/12/01 10:38:26;;;;;;;1.75;0.82;;;;;;;8.46;70.08;95494.19;4938304;28;20135;-62
2021/12/01 10:41:01;;;;;;;2.20;1.10;;;;;;;8.32;69.20;95488.63;4944326;29;20065;-62
2021/12/01 10:43:38;;;;;;;1.65;1.20;;;;;;;8.01;71.04;95480.69;4935772;28;20086;-61
2021/12/01 10:46:41;;;;;;;3.20;1.00;;;;;;;8.03;72.14;95474.81;4938980;29;20043;-61
2021/12/01 10:49:07;;;;;;;1.80;1.20;;;;;;;7.97;71.50;95470.91;4938244;29;20067;-60
2021/12/01 10:51:39;;;;;;;1.77;1.02;;;;;;;7.77;72.59;95451.28;4942530;29;20581;-62
2021/12/01 10:54:13;;;;;;;2.30;1.50;;;;;;;7.45;74.10;95449.09;4938761;29;20047;-59
2021/12/01 10:56:38;;;;;;;1.60;1.20;;;;;;;7.58;74.42;95441.41;4942505;28;20035;-62
2021/12/01 10:59:12;;;;;;;6.55;1.52;;;;;;;7.89;72.95;95442.81;4937360;29;20058;-60
2021/12/01 11:01:38;;;;;;;2.50;1.20;;;;;;;8.16;71.66;95421.53;4943700;29;20054;-61
2021/12/01 11:04:04;;;;;;;1.40;1.00;;;;;;;8.31;71.70;95422.38;4940825;29;20129;-59
2021/12/01 11:06:34;;;;;;;1.67;1.00;;;;;;;8.26;70.91;95411.06;4943136;28;20145;-61
2021/12/01 11:09:00;;;;;;;1.83;1.30;;;;;;;7.90;71.96;95405.41;4943198;29;20043;-62
2021/12/01 11:11:35;;;;;;;1.23;1.00;;;;;;;7.91;73.16;95410.50;4936987;29;20047;-62
2021/12/01 11:14:13;;;;;;;2.95;1.70;;;;;;;8.14;71.80;95391.16;4942244;29;20099;-63
2021/12/01 11:16:40;;;;;;;4.28;2.15;;;;;;;8.00;72.82;95393.81;4937330;28;20129;-63
2021/12/01 11:19:06;;;;;;;6.40;1.80;;;;;;;8.03;72.65;95377.47;4937408;29;20043;-63
2021/12/01 11:21:31;;;;;;;9.35;1.73;;;;;;;8.15;72.69;95373.59;4943620;29;20047;-61
2021/12/01 11:24:02;;;;;;;3.42;1.60;;;;;;;8.08;72.97;95367.34;4944147;29;20039;-63
2021/12/01 11:26:30;;;;;;;1.73;1.13;;;;;;;8.26;72.32;95354.56;4938743;29;20435;-61
2021/12/01 11:28:59;;;;;;;1.85;1.40;;;;;;;8.34;72.33;95347.19;4940290;29;20049;-61
2021/12/01 11:31:30;;;;;;;9.77;1.50;;;;;;;8.38;71.98;95348.75;4936623;29;20325;-61
2021/12/01 11:33:58;;;;;;;4.20;1.83;;;;;;;8.41;72.06;95334.34;4942161;29;20058;-62
2021/12/01 11:36:47;;;;;;;3.17;1.30;;;;;;;8.32;72.46;95339.38;4936748;28;20647;-62
2021/12/01 11:39:18;;;;;;;8.15;1.98;;;;;;;8.28;72.18;95324.16;4937313;29;20043;-61
2021/12/01 11:41:43;;;;;;;4.32;1.55;;;;;;;8.48;71.04;95319.97;4947099;29;20043;-60
2021/12/01 11:44:11;;;;;;;1.70;1.20;;;;;;;8.47;71.03;95309.44;4938457;29;20043;-62